Search for airport 
image banner adimage banner adimage banner ad
image banner ad

8PS7 - Geisinger Community Medical Center

Located in Scranton, United States

ICAO - 8PS7, IATA -

Data provided by Airmate  

General information

Coordinates: N41°23'57" W75°38'35"
Elevation is 961 feet MSL.
Magnetic variation is -12° East
View others Airports in Pennsylvania

Operational data

Special qualification required
Current time UTC:
Current local time:
Weather at : KAVP - Wilkes-Barre/Scranton Intl ( 9 km )
METAR: KAVP 071254Z 02006KT 10SM CLR 12/00 A2991 RMK AO2 SLP128 T01220000
TAF: KAVP 071120Z 0712/0812 12004KT P6SM SCT150 FM071700 20005KT P6SM OVC050 FM080000 VRB03KT P6SM -SHRA OVC030 FM080300 14004KT 5SM -SHRA BR OVC012
View NOTAMs / SUP AIP / TFR affecting this airport [VIEW]
Communications frequencies: [VIEW]

Runways:

Airport contact information

Address: Scranton United States

Satellite view of 8PS7